LAM weather

Los Alamos Airport
Los Alamos, New Mexico, United States

Public forecast

Using degrees Fahrenheit for public forecast. Weather courtesy of forecast.io.

Current aviation weather report (METAR) for Los Alamos Airport

Retrieved 2020/02/20 04:35 UTC (0 seconds ago):

KLAM 200435Z AUTO 26007KT 10SM CLR 04/M02 A3018 RMK AO2 T00431023

Closest aviation forecast (TAF) to Los Alamos Airport

Closest forecast is Santa Fe Municipal Airport, 18.0 nm (33.4 km) SSE. Retrieved 2020-02-20 00:40 UTC (4 hours ago):

TAF KSAF 192338Z 2000/2024 22008KT P6SM SCT110 FM200600 10009KT P6SM BKN060 FM200900 14014G23KT P6SM VCSH SCT030 BKN050 FM202100 16012KT P6SM SCT050